createdAt,value
2023-04-18T00:01:03.026Z,14.93
2023-04-18T00:03:30.106Z,16.70
2023-04-18T00:05:58.055Z,17.98
2023-04-18T00:08:24.704Z,20.40
2023-04-18T00:10:51.405Z,18.70
2023-04-18T00:13:18.430Z,15.23
2023-04-18T00:15:46.331Z,19.98
2023-04-18T00:18:16.175Z,17.95
2023-04-18T00:20:43.160Z,17.83
2023-04-18T00:23:14.126Z,18.15
2023-04-18T00:25:40.956Z,18.02
2023-04-18T00:28:07.645Z,16.50
2023-04-18T00:30:34.256Z,19.17
2023-04-18T00:33:01.053Z,18.20
2023-04-18T00:35:27.624Z,18.13
2023-04-18T00:37:54.194Z,20.63
2023-04-18T00:40:20.730Z,17.23
2023-04-18T00:42:47.403Z,24.25
2023-04-18T00:45:13.959Z,21.13
2023-04-18T00:47:40.604Z,20.60
2023-04-18T00:50:08.293Z,22.90
2023-04-18T00:52:36.045Z,17.83
2023-04-18T00:55:06.194Z,25.60
2023-04-18T00:57:33.236Z,24.98
2023-04-18T01:00:01.594Z,22.00
2023-04-18T01:02:31.381Z,21.77
2023-04-18T01:04:59.503Z,22.40
2023-04-18T01:07:26.908Z,17.30
2023-04-18T01:09:54.210Z,20.13
2023-04-18T01:12:20.870Z,23.40
2023-04-18T01:14:47.533Z,24.58
2023-04-18T01:17:14.112Z,23.15
2023-04-18T01:19:40.869Z,20.67
2023-04-18T01:22:07.471Z,23.67
2023-04-18T01:24:34.265Z,22.45
2023-04-18T01:27:03.029Z,20.17
2023-04-18T01:29:29.619Z,21.38
2023-04-18T01:31:56.195Z,19.48
2023-04-18T01:34:22.973Z,20.77
2023-04-18T01:36:49.770Z,23.48
2023-04-18T01:39:18.344Z,19.95
2023-04-18T01:41:45.031Z,21.73
2023-04-18T01:44:11.772Z,22.83
2023-04-18T01:46:38.956Z,23.98
2023-04-18T01:49:06.525Z,22.95
2023-04-18T01:51:33.073Z,20.83
2023-04-18T01:53:59.655Z,19.88
2023-04-18T01:56:26.229Z,19.20
2023-04-18T01:58:52.819Z,21.10
2023-04-18T02:01:19.665Z,20.10
2023-04-18T02:03:46.912Z,17.15
2023-04-18T02:06:13.592Z,21.80
2023-04-18T02:08:40.366Z,19.48
2023-04-18T02:11:07.075Z,18.48
2023-04-18T02:13:33.661Z,27.10
2023-04-18T02:16:00.278Z,20.58
2023-04-18T02:18:27.249Z,22.75
2023-04-18T02:20:53.889Z,20.95
2023-04-18T02:23:20.495Z,14.70
2023-04-18T02:25:47.021Z,23.33
2023-04-18T02:28:13.648Z,22.45
2023-04-18T02:30:40.283Z,21.73
2023-04-18T02:33:06.908Z,25.52
2023-04-18T02:35:33.549Z,33.63
2023-04-18T02:38:00.412Z,22.38
2023-04-18T02:40:26.973Z,21.38
2023-04-18T02:42:53.475Z,24.40
2023-04-18T02:45:20.113Z,23.05
2023-04-18T02:47:54.777Z,24.08
2023-04-18T02:50:23.185Z,22.63
2023-04-18T02:52:49.817Z,21.27
2023-04-18T02:55:16.560Z,21.83
2023-04-18T02:57:43.183Z,24.50
2023-04-18T03:00:10.216Z,22.40
2023-04-18T03:02:36.886Z,22.20
2023-04-18T03:05:03.796Z,20.88
2023-04-18T03:07:31.109Z,22.58
2023-04-18T03:09:57.863Z,20.67
2023-04-18T03:12:24.568Z,21.75
2023-04-18T03:14:51.272Z,20.05
2023-04-18T03:17:18.364Z,19.52
2023-04-18T03:19:46.489Z,22.73
2023-04-18T03:22:14.041Z,21.52
2023-04-18T03:24:40.657Z,22.40
2023-04-18T03:27:07.396Z,23.20
2023-04-18T03:29:34.230Z,24.88
2023-04-18T03:32:00.906Z,20.27
2023-04-18T03:34:27.638Z,25.73
2023-04-18T03:36:54.348Z,24.35
2023-04-18T03:39:20.960Z,24.52
2023-04-18T03:41:47.562Z,20.85
2023-04-18T03:44:14.542Z,17.40
2023-04-18T03:46:41.601Z,21.30
2023-04-18T03:49:08.358Z,15.95
2023-04-18T03:51:43.654Z,21.17
2023-04-18T03:54:10.203Z,25.65
2023-04-18T03:56:36.848Z,20.95
2023-04-18T03:59:03.420Z,22.10
2023-04-18T04:01:30.094Z,22.55
2023-04-18T04:03:56.765Z,22.80
2023-04-18T04:06:23.444Z,18.25
2023-04-18T04:08:50.039Z,23.88
2023-04-18T04:11:17.634Z,22.27
2023-04-18T04:13:44.205Z,26.33
2023-04-18T04:16:10.840Z,21.40
2023-04-18T04:18:37.431Z,22.60
2023-04-18T04:21:05.304Z,20.83
2023-04-18T04:23:31.842Z,23.08
2023-04-18T04:25:59.314Z,23.02
2023-04-18T04:28:26.340Z,25.83
2023-04-18T04:30:53.306Z,24.83
2023-04-18T04:33:21.455Z,23.23
2023-04-18T04:35:48.234Z,23.17
2023-04-18T04:38:15.428Z,25.15
2023-04-18T04:40:42.613Z,24.73
2023-04-18T04:43:15.437Z,24.65
2023-04-18T04:45:43.186Z,26.20
2023-04-18T04:48:11.103Z,24.65
2023-04-18T04:50:38.926Z,25.52
2023-04-18T04:53:06.485Z,22.33
2023-04-18T04:55:33.742Z,25.80
2023-04-18T04:58:00.751Z,26.95
2023-04-18T05:00:28.849Z,22.63
2023-04-18T05:02:57.713Z,23.30
2023-04-18T05:05:24.515Z,22.15
2023-04-18T05:07:51.114Z,23.02
2023-04-18T05:10:17.793Z,25.50
2023-04-18T05:12:44.489Z,20.02
2023-04-18T05:15:11.337Z,21.58
2023-04-18T05:17:37.918Z,18.42
2023-04-18T05:20:05.729Z,22.50
2023-04-18T05:22:32.567Z,24.60
2023-04-18T05:24:59.121Z,24.95
2023-04-18T05:27:26.180Z,22.63
2023-04-18T05:29:52.980Z,22.92
2023-04-18T05:32:19.987Z,22.45
2023-04-18T05:34:46.997Z,22.17
2023-04-18T05:37:13.712Z,27.80
2023-04-18T05:39:40.934Z,24.10
2023-04-18T05:42:07.570Z,18.35
2023-04-18T05:44:34.144Z,24.73
2023-04-18T05:47:01.085Z,20.08
2023-04-18T05:49:27.723Z,24.40
2023-04-18T05:51:54.303Z,23.88
2023-04-18T05:54:21.890Z,19.48
2023-04-18T05:56:48.464Z,17.63
2023-04-18T05:59:15.228Z,18.63
2023-04-18T06:01:41.856Z,23.52
2023-04-18T06:04:08.828Z,21.52
2023-04-18T06:06:36.264Z,28.42
2023-04-18T06:09:03.030Z,19.55
2023-04-18T06:11:29.725Z,17.67
2023-04-18T06:13:56.249Z,16.92
2023-04-18T06:16:23.091Z,25.10
2023-04-18T06:18:49.651Z,22.23
2023-04-18T06:21:16.243Z,23.42
2023-04-18T06:23:42.816Z,23.60
2023-04-18T06:26:09.634Z,24.23
2023-04-18T06:28:36.185Z,25.08
2023-04-18T06:31:02.940Z,19.05
2023-04-18T06:33:29.503Z,21.67
2023-04-18T06:35:56.148Z,22.48
2023-04-18T06:38:22.946Z,23.25
2023-04-18T06:40:49.451Z,23.17
2023-04-18T06:43:16.118Z,25.13
2023-04-18T06:45:42.814Z,19.42
2023-04-18T06:48:10.803Z,21.35
2023-04-18T06:50:37.483Z,22.42
2023-04-18T06:53:04.029Z,19.25
2023-04-18T06:55:31.009Z,18.77
2023-04-18T06:57:57.595Z,18.23
2023-04-18T07:00:24.095Z,21.65
2023-04-18T07:02:50.870Z,19.63
2023-04-18T07:05:17.600Z,22.65
2023-04-18T07:07:44.201Z,18.95
2023-04-18T07:10:11.524Z,21.77
2023-04-18T07:12:38.298Z,28.55
2023-04-18T07:15:05.259Z,28.67
2023-04-18T07:17:31.977Z,20.35
2023-04-18T07:19:58.806Z,18.98
2023-04-18T07:22:26.401Z,24.40
2023-04-18T07:24:53.022Z,24.98
2023-04-18T07:27:19.574Z,21.00
2023-04-18T07:29:46.096Z,23.80
2023-04-18T07:32:13.848Z,22.58
2023-04-18T07:34:40.481Z,20.20
2023-04-18T07:37:07.763Z,23.25
2023-04-18T07:39:36.153Z,22.70
2023-04-18T07:42:07.764Z,20.05
2023-04-18T07:44:35.863Z,16.42
2023-04-18T07:47:02.799Z,22.15
2023-04-18T07:49:29.365Z,19.63
2023-04-18T07:51:56.052Z,19.75
2023-04-18T07:54:22.974Z,18.33
2023-04-18T07:56:49.518Z,17.45
2023-04-18T07:59:16.563Z,21.52
2023-04-18T08:01:43.380Z,19.17
2023-04-18T08:04:10.243Z,21.17
2023-04-18T08:06:36.936Z,20.58
2023-04-18T08:09:05.595Z,17.67
2023-04-18T08:11:33.327Z,18.05
2023-04-18T08:14:00.002Z,20.77
2023-04-18T08:16:26.879Z,17.80
2023-04-18T08:18:53.437Z,18.70
2023-04-18T08:21:20.399Z,18.65
2023-04-18T08:23:47.136Z,17.85
2023-04-18T08:26:15.122Z,19.55
2023-04-18T08:28:42.245Z,18.52
2023-04-18T08:31:12.875Z,18.63
2023-04-18T08:33:39.705Z,23.30
2023-04-18T08:36:07.980Z,18.98
2023-04-18T08:38:34.636Z,19.33
2023-04-18T08:41:03.651Z,18.83
2023-04-18T08:43:31.336Z,18.98
2023-04-18T08:45:59.490Z,20.90
2023-04-18T08:48:28.416Z,16.75
2023-04-18T08:50:59.557Z,17.05
2023-04-18T08:53:27.129Z,21.35
2023-04-18T08:55:56.794Z,19.88
2023-04-18T08:58:24.452Z,16.17
2023-04-18T09:00:54.147Z,15.00
2023-04-18T09:03:39.760Z,16.02
2023-04-18T09:06:10.636Z,13.02
2023-04-18T09:08:37.194Z,16.42
2023-04-18T09:11:26.245Z,18.10
2023-04-18T09:13:53.354Z,14.82
2023-04-18T09:16:22.486Z,16.70
2023-04-18T09:19:11.189Z,14.80
2023-04-18T09:21:41.289Z,17.52
2023-04-18T09:24:20.751Z,17.55
2023-04-18T09:26:50.045Z,12.77
2023-04-18T09:29:18.643Z,14.18
2023-04-18T09:32:01.997Z,12.30
2023-04-18T09:34:29.180Z,12.73
2023-04-18T09:37:13.698Z,12.45
2023-04-18T09:39:45.034Z,12.15
2023-04-18T09:42:12.613Z,12.98
2023-04-18T09:44:58.725Z,13.75
2023-04-18T09:47:27.886Z,12.93
2023-04-18T09:49:54.579Z,12.25
2023-04-18T09:52:26.513Z,11.55
2023-04-18T09:54:58.645Z,10.43
2023-04-18T09:57:29.900Z,10.68
2023-04-18T10:00:13.959Z,12.43
2023-04-18T10:02:48.571Z,12.05
2023-04-18T10:05:15.812Z,10.95
2023-04-18T10:07:45.168Z,12.95
2023-04-18T10:10:12.448Z,8.98
2023-04-18T10:12:41.125Z,9.65
2023-04-18T10:15:09.851Z,15.50
2023-04-18T10:18:04.193Z,13.15
2023-04-18T10:20:33.148Z,11.10
2023-04-18T10:23:00.008Z,12.18
2023-04-18T10:28:10.061Z,11.70
2023-04-18T10:38:46.192Z,9.77
2023-04-18T10:44:14.625Z,10.48
2023-04-18T10:49:26.388Z,8.82
2023-04-18T10:51:58.742Z,7.85
2023-04-18T10:54:51.992Z,9.55
2023-04-18T10:57:18.531Z,7.13
2023-04-18T10:59:49.304Z,9.90
2023-04-18T11:02:25.828Z,10.88
2023-04-18T11:04:54.912Z,14.13
2023-04-18T11:07:43.213Z,8.85
2023-04-18T11:10:09.978Z,8.00
2023-04-18T11:12:38.906Z,7.97
2023-04-18T11:15:21.929Z,9.85
2023-04-18T11:20:49.043Z,9.50
2023-04-18T11:23:18.250Z,11.27
2023-04-18T11:25:45.466Z,11.07
2023-04-18T11:28:13.897Z,8.27
2023-04-18T11:30:42.152Z,10.27
2023-04-18T11:33:11.295Z,10.60
2023-04-18T11:35:39.699Z,9.98
2023-04-18T11:38:09.674Z,11.75
2023-04-18T11:40:37.336Z,9.13
2023-04-18T11:43:06.173Z,11.52
2023-04-18T11:45:33.189Z,9.80
2023-04-18T11:48:00.990Z,9.35
2023-04-18T11:50:27.787Z,11.15
2023-04-18T11:52:56.574Z,9.23
2023-04-18T11:55:25.461Z,9.25
2023-04-18T11:57:55.263Z,8.77
2023-04-18T12:00:39.793Z,9.30
2023-04-18T12:03:15.675Z,9.43
2023-04-18T12:05:43.128Z,10.95
2023-04-18T12:10:48.373Z,10.23
2023-04-18T12:13:15.180Z,10.02
2023-04-18T12:15:44.643Z,14.98
2023-04-18T12:18:14.152Z,10.35
2023-04-18T12:23:40.083Z,11.50
2023-04-18T12:28:35.245Z,9.73
2023-04-18T12:31:02.241Z,10.38
2023-04-18T12:33:28.895Z,12.02
2023-04-18T12:35:56.090Z,9.27
2023-04-18T12:38:24.086Z,10.27
2023-04-18T12:40:52.384Z,13.65
2023-04-18T12:43:19.515Z,11.77
2023-04-18T12:45:47.095Z,13.60
2023-04-18T12:48:14.011Z,12.65
2023-04-18T12:50:40.780Z,14.38
2023-04-18T12:53:07.412Z,10.35
2023-04-18T12:55:34.163Z,11.65
2023-04-18T12:58:00.887Z,12.68
2023-04-18T13:00:31.299Z,10.20
2023-04-18T13:02:58.804Z,10.57
2023-04-18T13:05:29.883Z,9.23
2023-04-18T13:08:15.436Z,8.65
2023-04-18T13:10:43.429Z,8.43
2023-04-18T13:13:10.842Z,11.52
2023-04-18T13:15:38.541Z,12.07
2023-04-18T13:18:06.715Z,8.27
2023-04-18T13:20:34.437Z,10.65
2023-04-18T13:23:02.788Z,12.25
2023-04-18T13:25:29.447Z,11.45
2023-04-18T13:27:57.495Z,6.68
2023-04-18T13:30:24.117Z,10.88
2023-04-18T13:32:50.840Z,9.23
2023-04-18T13:35:18.565Z,12.60
2023-04-18T13:37:46.133Z,12.23
2023-04-18T13:40:13.042Z,10.45
2023-04-18T13:42:39.587Z,7.88
2023-04-18T13:45:07.337Z,7.35
2023-04-18T13:47:34.473Z,8.80
2023-04-18T13:50:01.172Z,7.72
2023-04-18T13:52:27.852Z,7.35
2023-04-18T13:54:55.956Z,10.15
2023-04-18T13:57:23.210Z,7.80
2023-04-18T13:59:49.945Z,12.48
2023-04-18T14:02:16.740Z,7.60
2023-04-18T14:04:43.548Z,7.25
2023-04-18T14:07:10.743Z,8.35
2023-04-18T14:09:37.361Z,7.07
2023-04-18T14:12:04.202Z,8.73
2023-04-18T14:14:30.837Z,9.00
2023-04-18T14:16:57.479Z,10.10
2023-04-18T14:19:24.094Z,8.82
2023-04-18T14:21:50.887Z,8.60
2023-04-18T14:24:17.646Z,11.02
2023-04-18T14:26:44.191Z,8.45
2023-04-18T14:29:11.185Z,10.30
2023-04-18T14:31:38.140Z,10.45
2023-04-18T14:34:05.660Z,11.73
2023-04-18T14:36:32.753Z,7.97
2023-04-18T14:38:59.443Z,9.75
2023-04-18T14:41:26.255Z,9.27
2023-04-18T14:43:52.951Z,7.93
2023-04-18T14:46:21.228Z,10.45
2023-04-18T14:48:47.943Z,7.47
2023-04-18T14:51:16.205Z,7.30
2023-04-18T14:53:43.014Z,9.43
2023-04-18T14:56:09.879Z,7.70
2023-04-18T14:58:36.481Z,11.23
2023-04-18T15:01:04.999Z,9.27
2023-04-18T15:03:32.029Z,7.50
2023-04-18T15:05:59.488Z,13.75
2023-04-18T15:08:26.133Z,9.27
2023-04-18T15:10:52.678Z,7.10
2023-04-18T15:13:19.517Z,7.35
2023-04-18T15:15:54.899Z,12.18
2023-04-18T15:18:22.093Z,9.45
2023-04-18T15:20:48.817Z,10.50
2023-04-18T15:23:15.666Z,13.93
2023-04-18T15:25:44.283Z,11.18
2023-04-18T15:28:13.283Z,8.75
2023-04-18T15:30:40.059Z,8.95
2023-04-18T15:33:06.710Z,8.77
2023-04-18T15:35:33.277Z,7.65
2023-04-18T15:37:59.851Z,8.07
2023-04-18T15:40:26.425Z,5.80
2023-04-18T15:42:54.309Z,7.25
2023-04-18T15:45:21.424Z,6.90
2023-04-18T15:47:48.373Z,8.60
2023-04-18T15:50:16.278Z,7.88
2023-04-18T15:52:43.429Z,8.75
2023-04-18T15:55:13.214Z,10.00
2023-04-18T16:00:12.123Z,7.85
2023-04-18T16:02:38.914Z,7.50
2023-04-18T16:05:05.966Z,9.27
2023-04-18T16:07:32.504Z,11.43
2023-04-18T16:09:59.142Z,8.48
2023-04-18T16:12:25.756Z,6.38
2023-04-18T16:14:52.299Z,7.32
2023-04-18T16:17:18.837Z,6.72
2023-04-18T16:19:45.544Z,7.60
2023-04-18T16:22:12.488Z,6.93
2023-04-18T16:24:40.447Z,7.25
2023-04-18T16:27:08.697Z,11.75
2023-04-18T16:29:35.480Z,11.55
2023-04-18T16:32:02.119Z,7.68
2023-04-18T16:34:28.703Z,7.10
2023-04-18T16:36:55.723Z,11.35
2023-04-18T16:39:22.398Z,8.27
2023-04-18T16:41:48.971Z,9.68
2023-04-18T16:44:15.902Z,8.77
2023-04-18T16:46:42.917Z,7.10
2023-04-18T16:49:09.558Z,6.28
2023-04-18T16:51:37.394Z,7.10
2023-04-18T16:54:04.838Z,7.10
2023-04-18T16:56:31.563Z,10.20
2023-04-18T16:58:58.814Z,6.65
2023-04-18T17:01:25.602Z,8.63
2023-04-18T17:03:52.308Z,8.90
2023-04-18T17:06:19.491Z,6.93
2023-04-18T17:08:46.248Z,5.00
2023-04-18T17:11:12.815Z,10.20
2023-04-18T17:13:39.363Z,10.50
2023-04-18T17:16:07.622Z,6.80
2023-04-18T17:18:34.217Z,6.32
2023-04-18T17:21:00.862Z,11.73
2023-04-18T17:23:27.569Z,5.95
2023-04-18T17:25:54.126Z,7.75
2023-04-18T17:28:21.359Z,8.55
2023-04-18T17:30:48.015Z,7.50
2023-04-18T17:33:14.568Z,9.82
2023-04-18T17:35:41.665Z,9.88
2023-04-18T17:38:10.636Z,10.00
2023-04-18T17:40:37.330Z,9.70
2023-04-18T17:43:03.859Z,11.38
2023-04-18T17:45:30.491Z,10.18
2023-04-18T17:47:58.297Z,8.55
2023-04-18T17:50:25.110Z,8.27
2023-04-18T17:52:51.803Z,12.25
2023-04-18T17:55:18.482Z,8.98
2023-04-18T17:57:45.309Z,8.70
2023-04-18T18:00:13.803Z,12.93
2023-04-18T18:02:42.427Z,10.63
2023-04-18T18:05:13.460Z,9.73
2023-04-18T18:07:42.969Z,9.73
2023-04-18T18:10:10.456Z,7.30
2023-04-18T18:12:38.149Z,8.60
2023-04-18T18:15:05.376Z,7.65
2023-04-18T18:17:31.947Z,11.15
2023-04-18T18:19:58.577Z,13.63
2023-04-18T18:22:26.155Z,18.50
2023-04-18T18:24:52.972Z,12.10
2023-04-18T18:27:20.364Z,12.80
2023-04-18T18:29:48.094Z,9.05
2023-04-18T18:32:14.722Z,11.15
2023-04-18T18:34:41.324Z,12.52
2023-04-18T18:37:07.917Z,9.00
2023-04-18T18:39:34.511Z,11.73
2023-04-18T18:42:01.705Z,9.40
2023-04-18T18:44:28.464Z,9.88
2023-04-18T18:46:56.497Z,12.98
2023-04-18T18:49:23.102Z,11.10
2023-04-18T18:51:49.615Z,8.23
2023-04-18T18:54:16.302Z,14.20
2023-04-18T18:56:44.224Z,11.05
2023-04-18T18:59:11.458Z,11.88
2023-04-18T19:01:38.078Z,11.95
2023-04-18T19:04:05.252Z,12.52
2023-04-18T19:06:32.193Z,11.05
2023-04-18T19:08:59.109Z,11.27
2023-04-18T19:11:26.789Z,13.77
2023-04-18T19:13:53.952Z,13.52
2023-04-18T19:16:20.583Z,13.85
2023-04-18T19:18:49.155Z,10.93
2023-04-18T19:21:16.468Z,12.10
2023-04-18T19:23:43.278Z,11.68
2023-04-18T19:26:10.282Z,17.33
2023-04-18T19:28:36.880Z,9.98
2023-04-18T19:31:03.740Z,11.88
2023-04-18T19:33:30.366Z,15.75
2023-04-18T19:35:56.936Z,11.25
2023-04-18T19:38:23.555Z,13.38
2023-04-18T19:40:50.137Z,12.43
2023-04-18T19:43:16.677Z,18.35
2023-04-18T19:45:43.357Z,15.27
2023-04-18T19:48:09.956Z,11.70
2023-04-18T19:50:39.432Z,10.25
2023-04-18T19:53:06.260Z,11.10
2023-04-18T19:55:32.801Z,11.57
2023-04-18T19:57:59.989Z,14.23
2023-04-18T20:00:27.000Z,11.50
2023-04-18T20:02:54.438Z,11.23
2023-04-18T20:05:21.372Z,14.48
2023-04-18T20:07:48.232Z,8.38
2023-04-18T20:10:14.838Z,12.55
2023-04-18T20:12:41.464Z,7.00
2023-04-18T20:15:08.655Z,11.35
2023-04-18T20:17:35.488Z,13.70
2023-04-18T20:20:02.234Z,10.45
2023-04-18T20:22:28.786Z,15.88
2023-04-18T20:24:57.789Z,10.43
2023-04-18T20:27:24.464Z,10.48
2023-04-18T20:29:51.018Z,12.05
2023-04-18T20:32:17.601Z,11.77
2023-04-18T20:34:45.758Z,11.70
2023-04-18T20:37:15.483Z,14.35
2023-04-18T20:39:42.112Z,12.73
2023-04-18T20:42:14.184Z,11.25
2023-04-18T20:44:43.208Z,14.23
2023-04-18T20:47:09.805Z,16.42
2023-04-18T20:49:36.427Z,17.88
2023-04-18T20:52:03.061Z,14.55
2023-04-18T20:54:29.634Z,10.07
2023-04-18T20:56:56.204Z,17.45
2023-04-18T20:59:22.780Z,10.25
2023-04-18T21:01:49.384Z,11.10
2023-04-18T21:04:16.492Z,14.95
2023-04-18T21:06:43.227Z,13.23
2023-04-18T21:09:09.781Z,11.95
2023-04-18T21:11:36.338Z,15.20
2023-04-18T21:14:05.736Z,11.63
2023-04-18T21:16:32.738Z,16.95
2023-04-18T21:18:59.532Z,10.75
2023-04-18T21:21:26.094Z,11.93
2023-04-18T21:23:52.658Z,14.27
2023-04-18T21:26:19.210Z,13.63
2023-04-18T21:28:56.292Z,15.13
2023-04-18T21:31:23.446Z,12.48
2023-04-18T21:33:54.133Z,14.20
2023-04-18T21:36:20.998Z,14.50
2023-04-18T21:38:47.691Z,13.13
2023-04-18T21:41:16.168Z,16.10
2023-04-18T21:43:43.454Z,16.52
2023-04-18T21:46:11.884Z,14.15
2023-04-18T21:48:41.045Z,18.35
2023-04-18T21:51:09.690Z,14.48
2023-04-18T21:53:37.699Z,15.38
2023-04-18T21:56:04.955Z,16.33
2023-04-18T21:58:31.924Z,20.05
2023-04-18T22:00:58.555Z,19.38
2023-04-18T22:03:27.586Z,20.70
2023-04-18T22:05:56.607Z,22.55
2023-04-18T22:08:25.864Z,15.27
2023-04-18T22:10:56.055Z,11.60
2023-04-18T22:15:49.944Z,13.55
2023-04-18T22:18:16.526Z,20.60
2023-04-18T22:20:43.326Z,22.05
2023-04-18T22:23:10.707Z,19.83
2023-04-18T22:25:37.469Z,14.70
2023-04-18T22:28:04.704Z,19.52
2023-04-18T22:30:31.999Z,21.35
2023-04-18T22:32:59.328Z,18.75
2023-04-18T22:35:26.850Z,20.33
2023-04-18T22:37:53.492Z,12.77
2023-04-18T22:40:20.414Z,19.95
2023-04-18T22:42:47.001Z,17.10
2023-04-18T22:45:13.716Z,19.42
2023-04-18T22:47:40.579Z,19.05
2023-04-18T22:50:08.011Z,20.95
2023-04-18T22:52:34.699Z,16.40
2023-04-18T22:55:03.297Z,11.68
2023-04-18T22:57:29.904Z,17.70
2023-04-18T22:59:56.497Z,19.58
2023-04-18T23:02:23.309Z,15.20
2023-04-18T23:04:50.655Z,18.33
2023-04-18T23:07:17.359Z,21.40
2023-04-18T23:09:43.876Z,13.80
2023-04-18T23:12:10.464Z,18.85
2023-04-18T23:14:37.052Z,15.43
2023-04-18T23:17:03.700Z,15.20
2023-04-18T23:19:30.314Z,16.23
2023-04-18T23:21:56.898Z,14.93
2023-04-18T23:24:23.417Z,20.88
2023-04-18T23:26:49.972Z,14.20
2023-04-18T23:29:16.572Z,11.63
2023-04-18T23:31:43.430Z,20.65
2023-04-18T23:34:10.693Z,21.60
2023-04-18T23:36:37.409Z,23.05
2023-04-18T23:39:04.380Z,19.67
2023-04-18T23:41:30.993Z,15.85
2023-04-18T23:43:57.673Z,18.83
2023-04-18T23:46:24.295Z,15.35
2023-04-18T23:48:51.058Z,14.77
2023-04-18T23:51:17.877Z,16.35
2023-04-18T23:53:44.533Z,15.23
2023-04-18T23:56:11.047Z,15.10
2023-04-18T23:58:37.610Z,21.88
